createdAt,value
2018-08-12T00:01:44.953Z,94.07
2018-08-12T00:04:14.005Z,93.03
2018-08-12T00:06:43.090Z,96.07
2018-08-12T00:09:12.142Z,98.23
2018-08-12T00:14:16.905Z,99.03
2018-08-12T00:16:46.901Z,95.65
2018-08-12T00:19:16.917Z,95.23
2018-08-12T00:21:45.970Z,93.34
2018-08-12T00:24:15.044Z,96.27
2018-08-12T00:26:44.138Z,93.97
2018-08-12T00:29:13.228Z,96.10
2018-08-12T00:31:42.261Z,94.79
2018-08-12T00:34:13.274Z,92.69
2018-08-12T00:36:43.313Z,95.56
2018-08-12T00:39:12.382Z,95.11
2018-08-12T00:41:41.582Z,96.04
2018-08-12T00:44:10.585Z,96.76
2018-08-12T00:46:39.683Z,96.04
2018-08-12T00:49:08.742Z,97.02
2018-08-12T00:51:37.796Z,96.70
2018-08-12T00:56:42.543Z,96.68
2018-08-12T01:01:47.294Z,96.63
2018-08-12T01:04:17.284Z,94.50
2018-08-12T01:06:46.343Z,96.00
2018-08-12T01:11:51.179Z,97.82
2018-08-12T01:14:20.241Z,97.64
2018-08-12T01:16:50.257Z,95.97
2018-08-12T01:19:19.304Z,97.92
2018-08-12T01:21:48.361Z,97.11
2018-08-12T01:24:18.396Z,96.21
2018-08-12T01:26:47.458Z,96.19
2018-08-12T01:29:17.514Z,99.21
2018-08-12T01:31:47.473Z,99.12
2018-08-12T01:34:16.529Z,98.64
2018-08-12T01:36:45.590Z,95.94
2018-08-12T01:39:14.647Z,98.48
2018-08-12T01:41:43.713Z,98.60
2018-08-12T01:44:13.849Z,99.73
2018-08-12T01:46:42.893Z,97.84
2018-08-12T01:51:47.715Z,95.72
2018-08-12T01:54:16.937Z,97.46
2018-08-12T01:56:45.987Z,97.87
2018-08-12T01:59:16.027Z,98.35
2018-08-12T02:01:45.069Z,98.02
2018-08-12T02:04:14.126Z,98.69
2018-08-12T02:06:43.185Z,96.67
2018-08-12T02:09:12.293Z,99.41
2018-08-12T02:14:08.686Z,99.62
2018-08-12T02:16:37.752Z,97.71
2018-08-12T02:19:06.811Z,99.94
2018-08-12T02:24:11.636Z,98.98
2018-08-12T02:26:40.802Z,98.66
2018-08-12T02:29:09.908Z,100.00
2018-08-12T02:31:38.975Z,100.00
2018-08-12T02:34:08.034Z,100.00
2018-08-12T02:36:38.038Z,98.96
2018-08-12T02:39:07.085Z,98.34
2018-08-12T02:41:36.142Z,98.69
2018-08-12T02:44:05.198Z,97.68
2018-08-12T02:46:34.252Z,98.98
2018-08-12T02:51:38.994Z,98.15
2018-08-12T02:54:08.245Z,96.78
2018-08-12T02:59:13.044Z,99.30
2018-08-12T03:04:17.852Z,100.00
2018-08-12T03:06:46.893Z,100.00
2018-08-12T03:09:15.951Z,100.00
2018-08-12T03:11:45.006Z,100.00
2018-08-12T03:14:14.070Z,100.00
2018-08-12T03:16:43.117Z,100.00
2018-08-12T03:19:12.175Z,100.00
2018-08-12T03:21:41.361Z,100.00
2018-08-12T03:24:10.430Z,100.00
2018-08-12T03:26:40.499Z,100.00
2018-08-12T03:29:09.557Z,100.00
2018-08-12T03:31:38.616Z,100.00
2018-08-12T03:34:08.149Z,100.00
2018-08-12T03:36:37.217Z,100.00
2018-08-12T03:41:41.991Z,100.00
2018-08-12T03:44:11.059Z,100.00
2018-08-12T03:46:40.113Z,100.00
2018-08-12T03:49:10.169Z,100.00
2018-08-12T03:51:40.205Z,100.00
2018-08-12T03:56:44.990Z,100.00
2018-08-12T03:59:14.041Z,100.00
2018-08-12T04:01:43.153Z,100.00
2018-08-12T04:06:47.918Z,100.00
2018-08-12T04:09:17.910Z,100.00
2018-08-12T04:11:47.051Z,100.00
2018-08-12T04:16:52.337Z,100.00
2018-08-12T04:19:21.399Z,100.00
2018-08-12T04:21:50.459Z,100.00
2018-08-12T04:24:19.516Z,100.00
2018-08-12T04:26:48.586Z,99.91
2018-08-12T04:29:17.624Z,97.51
2018-08-12T04:34:22.445Z,99.08
2018-08-12T04:36:51.520Z,99.45
2018-08-12T04:39:20.614Z,100.00
2018-08-12T04:41:50.533Z,99.01
2018-08-12T04:44:19.592Z,100.00
2018-08-12T04:46:48.650Z,100.00
2018-08-12T04:51:53.414Z,98.41
2018-08-12T04:54:22.494Z,99.06
2018-08-12T04:56:51.553Z,99.57
2018-08-12T04:59:20.652Z,98.73
2018-08-12T05:01:49.680Z,98.02
2018-08-12T05:04:18.745Z,97.26
2018-08-12T05:06:48.586Z,97.87
2018-08-12T05:09:18.562Z,96.56
2018-08-12T05:11:47.622Z,96.72
2018-08-12T05:14:16.672Z,99.11
2018-08-12T05:16:45.724Z,98.90
2018-08-12T05:19:14.777Z,98.12
2018-08-12T05:24:22.565Z,98.11
2018-08-12T05:29:27.322Z,95.05
2018-08-12T05:34:32.148Z,98.12
2018-08-12T05:37:02.134Z,96.08
2018-08-12T05:39:31.217Z,95.79
2018-08-12T05:42:00.265Z,97.23
2018-08-12T05:44:29.340Z,97.74
2018-08-12T05:46:59.478Z,96.86
2018-08-12T05:49:30.562Z,96.37
2018-08-12T05:54:35.392Z,94.73
2018-08-12T05:57:13.799Z,94.32
2018-08-12T05:59:49.273Z,94.33
2018-08-12T06:02:33.197Z,93.67
2018-08-12T06:05:02.802Z,93.29
2018-08-12T06:07:32.806Z,92.56
2018-08-12T06:10:01.857Z,92.29
2018-08-12T06:12:30.904Z,92.83
2018-08-12T06:14:59.971Z,92.11
2018-08-12T06:17:29.092Z,92.59
2018-08-12T06:19:59.007Z,92.13
2018-08-12T06:25:03.771Z,90.85
2018-08-12T06:27:32.850Z,90.64
2018-08-12T06:32:39.544Z,89.72
2018-08-12T06:37:44.323Z,88.94
2018-08-12T06:40:13.402Z,87.56
2018-08-12T06:47:53.925Z,85.53
2018-08-12T06:50:22.961Z,85.97
2018-08-12T06:52:52.023Z,85.90
2018-08-12T06:55:22.005Z,83.26
2018-08-12T06:57:51.204Z,83.17
2018-08-12T07:00:20.371Z,82.15
2018-08-12T07:02:49.362Z,82.81
2018-08-12T07:05:18.415Z,81.08
2018-08-12T07:07:47.465Z,78.98
2018-08-12T07:10:16.509Z,80.11
2018-08-12T07:15:21.276Z,76.45
2018-08-12T07:17:50.580Z,76.24
2018-08-12T07:20:20.582Z,75.77
2018-08-12T07:22:50.617Z,74.48
2018-08-12T07:25:20.625Z,72.86
2018-08-12T07:30:25.444Z,73.41
2018-08-12T07:32:54.556Z,71.67
2018-08-12T07:35:23.562Z,71.84
2018-08-12T07:37:52.595Z,69.61
2018-08-12T07:40:22.612Z,68.02
2018-08-12T07:42:51.685Z,68.93
2018-08-12T07:47:56.470Z,67.42
2018-08-12T07:50:25.639Z,66.75
2018-08-12T07:52:54.688Z,65.20
2018-08-12T07:55:23.739Z,64.85
2018-08-12T07:57:53.174Z,66.29
2018-08-12T08:02:58.180Z,62.36
2018-08-12T08:08:02.969Z,61.48
2018-08-12T08:13:07.824Z,60.71
2018-08-12T08:15:36.871Z,57.32
2018-08-12T08:18:05.931Z,58.96
2018-08-12T08:23:10.692Z,56.34
2018-08-12T08:28:19.040Z,59.20
2018-08-12T08:30:48.225Z,59.07
2018-08-12T08:33:17.285Z,55.04
2018-08-12T08:35:46.337Z,55.05
2018-08-12T08:38:15.374Z,52.80
2018-08-12T08:40:44.420Z,52.65
2018-08-12T08:43:13.487Z,51.17
2018-08-12T08:48:18.394Z,50.32
2018-08-12T08:50:49.459Z,52.05
2018-08-12T08:53:19.107Z,50.49
2018-08-12T08:55:48.269Z,50.87
2018-08-12T08:58:22.444Z,51.46
2018-08-12T09:00:52.421Z,49.02
2018-08-12T09:03:21.464Z,49.19
2018-08-12T09:05:51.442Z,53.67
2018-08-12T09:08:20.570Z,50.23
2018-08-12T09:10:49.831Z,51.17
2018-08-12T09:15:54.644Z,47.48
2018-08-12T09:18:23.677Z,42.47
2018-08-12T09:20:54.565Z,43.18
2018-08-12T09:23:24.649Z,41.90
2018-08-12T09:28:29.621Z,36.95
2018-08-12T09:30:58.665Z,37.19
2018-08-12T09:33:27.728Z,38.33
2018-08-12T09:35:57.738Z,39.26
2018-08-12T09:38:26.793Z,33.25
2018-08-12T09:40:55.861Z,35.52
2018-08-12T09:43:24.921Z,33.57
2018-08-12T09:45:53.974Z,34.03
2018-08-12T09:48:23.041Z,35.08
2018-08-12T09:53:28.438Z,28.52
2018-08-12T09:55:57.495Z,31.29
2018-08-12T09:58:26.576Z,28.99
2018-08-12T10:00:56.621Z,29.12
2018-08-12T10:03:25.678Z,28.42
2018-08-12T10:05:54.721Z,30.80
2018-08-12T10:10:59.473Z,31.62
2018-08-12T10:13:28.661Z,29.48
2018-08-12T10:15:57.701Z,27.26
2018-08-12T10:21:02.624Z,28.16
2018-08-12T10:23:32.624Z,23.99
2018-08-12T10:26:01.739Z,26.17
2018-08-12T10:28:30.773Z,27.39
2018-08-12T10:30:59.826Z,25.79
2018-08-12T10:33:28.877Z,26.55
2018-08-12T10:35:57.942Z,21.98
2018-08-12T10:38:27.957Z,23.83
2018-08-12T10:40:57.035Z,24.44
2018-08-12T10:43:26.085Z,27.12
2018-08-12T10:45:55.495Z,24.74
2018-08-12T10:48:24.547Z,24.11
2018-08-12T10:50:53.655Z,25.45
2018-08-12T10:53:22.649Z,26.79
2018-08-12T10:55:52.673Z,26.53
2018-08-12T10:58:21.741Z,23.59
2018-08-12T11:00:50.780Z,27.15
2018-08-12T11:03:19.899Z,24.29
2018-08-12T11:08:24.629Z,30.12
2018-08-12T11:10:53.694Z,30.21
2018-08-12T11:13:22.825Z,30.56
2018-08-12T11:15:51.881Z,24.91
2018-08-12T11:18:21.375Z,22.07
2018-08-12T11:20:50.426Z,22.14
2018-08-12T11:23:21.468Z,22.82
2018-08-12T11:25:51.481Z,22.48
2018-08-12T11:28:20.541Z,20.22
2018-08-12T11:30:50.734Z,23.32
2018-08-12T11:33:19.773Z,22.24
2018-08-12T11:35:48.845Z,20.23
2018-08-12T11:38:19.256Z,21.09
2018-08-12T11:40:49.253Z,22.81
2018-08-12T11:43:18.307Z,20.10
2018-08-12T11:45:47.407Z,18.06
2018-08-12T11:48:16.452Z,19.56
2018-08-12T11:50:45.548Z,22.79
2018-08-12T11:53:16.594Z,23.81
2018-08-12T11:55:45.669Z,25.63
2018-08-12T11:58:14.837Z,27.77
2018-08-12T12:00:43.890Z,27.89
2018-08-12T12:03:12.945Z,25.47
2018-08-12T12:05:42.144Z,22.39
2018-08-12T12:08:11.212Z,22.94
2018-08-12T12:10:40.261Z,19.68
2018-08-12T12:13:09.629Z,22.12
2018-08-12T12:15:38.696Z,23.29
2018-08-12T12:18:07.750Z,22.73
2018-08-12T12:20:36.821Z,21.77
2018-08-12T12:23:05.867Z,21.44
2018-08-12T12:25:34.927Z,20.69
2018-08-12T12:28:03.965Z,18.65
2018-08-12T12:30:33.006Z,21.35
2018-08-12T12:35:37.834Z,24.17
2018-08-12T12:38:06.817Z,25.80
2018-08-12T12:40:36.919Z,26.42
2018-08-12T12:43:05.966Z,21.60
2018-08-12T12:45:35.365Z,20.59
2018-08-12T12:48:04.821Z,18.93
2018-08-12T12:53:10.702Z,20.71
2018-08-12T12:55:39.759Z,21.00
2018-08-12T12:58:08.883Z,19.15
2018-08-12T13:00:37.877Z,19.55
2018-08-12T13:03:06.937Z,19.13
2018-08-12T13:05:35.998Z,19.36
2018-08-12T13:08:05.049Z,20.71
2018-08-12T13:10:35.216Z,20.98
2018-08-12T13:15:40.403Z,20.20
2018-08-12T13:18:10.444Z,19.16
2018-08-12T13:20:39.514Z,18.42
2018-08-12T13:23:08.753Z,19.61
2018-08-12T13:25:38.768Z,20.50
2018-08-12T13:28:07.835Z,18.85
2018-08-12T13:30:36.881Z,19.35
2018-08-12T13:33:06.003Z,18.29
2018-08-12T13:35:37.016Z,19.80
2018-08-12T13:38:06.245Z,20.73
2018-08-12T13:40:35.345Z,21.68
2018-08-12T13:43:04.418Z,23.88
2018-08-12T13:45:33.591Z,21.41
2018-08-12T13:48:02.651Z,19.80
2018-08-12T13:50:31.702Z,21.84
2018-08-12T13:53:00.850Z,19.37
2018-08-12T13:55:34.572Z,18.61
2018-08-12T14:00:39.302Z,19.78
2018-08-12T14:05:44.054Z,18.75
2018-08-12T14:08:14.036Z,18.67
2018-08-12T14:10:44.057Z,19.37
2018-08-12T14:13:13.110Z,18.33
2018-08-12T14:15:42.172Z,19.43
2018-08-12T14:18:11.223Z,21.58
2018-08-12T14:20:40.282Z,20.83
2018-08-12T14:25:45.050Z,18.38
2018-08-12T14:28:14.280Z,21.44
2018-08-12T14:30:43.332Z,21.57
2018-08-12T14:33:13.310Z,23.16
2018-08-12T14:35:42.365Z,20.96
2018-08-12T14:38:11.432Z,19.23
2018-08-12T14:40:40.520Z,18.44
2018-08-12T14:43:10.537Z,19.99
2018-08-12T14:45:39.614Z,18.40
2018-08-12T14:48:08.677Z,20.25
2018-08-12T14:50:38.653Z,18.10
2018-08-12T14:53:07.736Z,16.82
2018-08-12T14:55:36.889Z,17.73
2018-08-12T14:58:05.963Z,21.05
2018-08-12T15:00:35.017Z,19.15
2018-08-12T15:03:04.074Z,20.38
2018-08-12T15:05:33.148Z,19.43
2018-08-12T15:08:02.225Z,18.36
2018-08-12T15:10:31.286Z,19.30
2018-08-12T15:18:11.818Z,18.42
2018-08-12T15:23:16.655Z,19.07
2018-08-12T15:25:45.712Z,18.71
2018-08-12T15:28:14.762Z,19.35
2018-08-12T15:30:43.933Z,20.41
2018-08-12T15:35:48.714Z,17.96
2018-08-12T15:38:17.763Z,20.39
2018-08-12T15:43:23.512Z,18.82
2018-08-12T15:45:52.573Z,18.39
2018-08-12T15:48:21.639Z,19.51
2018-08-12T15:50:51.629Z,19.63
2018-08-12T15:53:20.873Z,23.25
2018-08-12T15:55:49.949Z,22.58
2018-08-12T15:58:18.999Z,21.27
2018-08-12T16:00:48.145Z,21.42
2018-08-12T16:05:55.048Z,20.96
2018-08-12T16:08:24.094Z,20.43
2018-08-12T16:10:53.143Z,22.07
2018-08-12T16:13:22.196Z,21.51
2018-08-12T16:15:51.253Z,20.72
2018-08-12T16:18:21.437Z,20.90
2018-08-12T16:20:50.480Z,23.05
2018-08-12T16:23:19.557Z,23.98
2018-08-12T16:25:48.596Z,26.45
2018-08-12T16:30:53.516Z,28.00
2018-08-12T16:33:22.580Z,29.33
2018-08-12T16:35:52.765Z,30.00
2018-08-12T16:38:21.816Z,30.43
2018-08-12T16:40:50.889Z,31.26
2018-08-12T16:43:20.849Z,32.26
2018-08-12T16:45:49.901Z,34.17
2018-08-12T16:48:18.985Z,34.68
2018-08-12T16:50:48.044Z,37.00
2018-08-12T16:53:17.117Z,39.17
2018-08-12T16:58:21.873Z,37.04
2018-08-12T17:00:51.897Z,40.61
2018-08-12T17:03:20.944Z,40.14
2018-08-12T17:08:25.777Z,40.66
2018-08-12T17:10:55.848Z,40.42
2018-08-12T17:13:24.900Z,40.89
2018-08-12T17:15:53.976Z,40.90
2018-08-12T17:18:23.025Z,43.01
2018-08-12T17:23:27.862Z,42.54
2018-08-12T17:25:56.961Z,43.71
2018-08-12T17:28:25.968Z,44.34
2018-08-12T17:30:55.021Z,45.68
2018-08-12T17:33:24.086Z,45.69
2018-08-12T17:35:53.276Z,46.39
2018-08-12T17:38:22.344Z,46.68
2018-08-12T17:40:51.393Z,44.47
2018-08-12T17:43:20.436Z,47.30
2018-08-12T17:45:49.493Z,44.28
2018-08-12T17:48:20.591Z,44.31
2018-08-12T17:50:50.581Z,45.97
2018-08-12T17:53:19.636Z,47.77
2018-08-12T17:55:48.771Z,46.59
2018-08-12T17:58:17.826Z,46.10
2018-08-12T18:00:47.029Z,45.49
2018-08-12T18:03:16.072Z,46.53
2018-08-12T18:05:46.107Z,45.65
2018-08-12T18:08:15.197Z,47.23
2018-08-12T18:10:44.249Z,48.54
2018-08-12T18:13:13.294Z,48.58
2018-08-12T18:15:42.377Z,48.99
2018-08-12T18:18:11.426Z,49.79
2018-08-12T18:20:40.550Z,49.60
2018-08-12T18:23:10.506Z,50.18
2018-08-12T18:25:39.571Z,52.27
2018-08-12T18:28:08.806Z,51.76
2018-08-12T18:30:37.884Z,54.29
2018-08-12T18:33:06.946Z,56.36
2018-08-12T18:35:36.939Z,61.43
2018-08-12T18:38:05.984Z,58.57
2018-08-12T18:40:35.047Z,60.83
2018-08-12T18:43:04.134Z,62.49
2018-08-12T18:45:33.137Z,63.33
2018-08-12T18:48:02.207Z,60.31
2018-08-12T18:53:06.997Z,59.04
2018-08-12T18:55:36.078Z,63.39
2018-08-12T18:58:05.125Z,65.68
2018-08-12T19:00:34.168Z,65.02
2018-08-12T19:03:03.220Z,65.43
2018-08-12T19:05:33.307Z,61.50
2018-08-12T19:08:02.360Z,65.04
2018-08-12T19:10:31.556Z,66.12
2018-08-12T19:13:00.605Z,63.32
2018-08-12T19:15:29.675Z,64.60
2018-08-12T19:20:34.607Z,66.27
2018-08-12T19:23:05.673Z,69.39
2018-08-12T19:28:10.456Z,66.84
2018-08-12T19:30:39.547Z,64.17
2018-08-12T19:33:08.594Z,69.21
2018-08-12T19:35:37.650Z,68.78
2018-08-12T19:38:06.706Z,70.45
2018-08-12T19:40:35.785Z,71.23
2018-08-12T19:43:04.839Z,69.39
2018-08-12T19:45:33.888Z,69.47
2018-08-12T19:48:02.941Z,70.21
2018-08-12T19:50:31.998Z,71.80
2018-08-12T19:53:01.055Z,68.99
2018-08-12T19:55:30.130Z,69.12
2018-08-12T19:57:59.201Z,71.83
2018-08-12T20:00:28.244Z,73.73
2018-08-12T20:05:33.105Z,75.04
2018-08-12T20:08:03.098Z,73.26
2018-08-12T20:10:32.149Z,74.93
2018-08-12T20:13:01.289Z,73.65
2018-08-12T20:15:30.357Z,70.89
2018-08-12T20:17:59.437Z,71.38
2018-08-12T20:20:28.460Z,70.00
2018-08-12T20:22:57.501Z,72.22
2018-08-12T20:25:28.533Z,76.30
2018-08-12T20:27:57.637Z,76.20
2018-08-12T20:30:26.646Z,76.32
2018-08-12T20:32:55.687Z,78.08
2018-08-12T20:35:24.753Z,72.80
2018-08-12T20:37:53.797Z,78.11
2018-08-12T20:40:34.302Z,76.22
2018-08-12T20:43:13.503Z,80.19
2018-08-12T20:45:50.740Z,83.17
2018-08-12T20:48:19.798Z,80.40
2018-08-12T20:50:48.879Z,78.39
2018-08-12T20:53:17.936Z,75.33
2018-08-12T20:55:46.970Z,76.65
2018-08-12T20:58:16.017Z,75.54
2018-08-12T21:00:45.080Z,75.46
2018-08-12T21:05:49.896Z,74.76
2018-08-12T21:08:18.967Z,75.98
2018-08-12T21:13:23.824Z,75.59
2018-08-12T21:18:28.671Z,75.10
2018-08-12T21:23:33.514Z,75.34
2018-08-12T21:26:02.589Z,75.85
2018-08-12T21:28:31.641Z,76.75
2018-08-12T21:31:00.698Z,75.86
2018-08-12T21:33:29.777Z,75.81
2018-08-12T21:35:58.816Z,76.87
2018-08-12T21:41:03.576Z,76.24
2018-08-12T21:43:32.657Z,76.66
2018-08-12T21:46:01.688Z,77.67
2018-08-12T21:48:30.873Z,78.27
2018-08-12T21:56:11.589Z,77.44
2018-08-12T21:58:40.680Z,78.05
2018-08-12T22:03:45.448Z,76.88
2018-08-12T22:06:14.498Z,77.49
2018-08-12T22:08:43.537Z,76.90
2018-08-12T22:11:12.581Z,77.06
2018-08-12T22:16:17.369Z,76.63
2018-08-12T22:18:46.437Z,77.16
2018-08-12T22:21:15.517Z,76.39
2018-08-12T22:23:44.556Z,75.33
2018-08-12T22:26:14.755Z,76.02
2018-08-12T22:31:19.537Z,76.08
2018-08-12T22:36:24.422Z,74.80
2018-08-12T22:38:53.485Z,74.03
2018-08-12T22:43:58.347Z,73.18
2018-08-12T22:49:03.200Z,74.85
2018-08-12T22:51:32.254Z,74.95
2018-08-12T22:56:37.042Z,74.54
2018-08-12T23:01:42.711Z,77.63
2018-08-12T23:06:47.558Z,79.91
2018-08-12T23:11:52.414Z,79.82
2018-08-12T23:16:57.252Z,79.45
2018-08-12T23:19:26.300Z,80.26
2018-08-12T23:21:55.345Z,81.49
2018-08-12T23:24:24.516Z,81.09
2018-08-12T23:26:53.865Z,82.41
2018-08-12T23:31:58.609Z,81.87
2018-08-12T23:37:03.372Z,83.56
2018-08-12T23:39:32.426Z,83.92
2018-08-12T23:44:37.208Z,83.63
2018-08-12T23:47:06.241Z,84.73
2018-08-12T23:49:36.835Z,85.30
2018-08-12T23:52:05.957Z,84.59
2018-08-12T23:54:35.940Z,85.17
2018-08-12T23:57:04.992Z,85.06
2018-08-12T23:59:34.043Z,87.43
